TimeEST,TemperatureF,Dew PointF,Humidity,Sea Level PressureIn,VisibilityMPH,Wind Direction,Wind SpeedMPH,Gust SpeedMPH,PrecipitationIn,Events,Conditions,WindDirDegrees,DateUTC
12:53 AM,18.0,10.0,71,30.10,10.0,NW,5.8,-,N/A,,Partly Cloudy,310,2013-02-16 05:53:00
1:53 AM,17.1,10.0,74,30.09,10.0,WNW,3.5,-,N/A,,Clear,290,2013-02-16 06:53:00
2:53 AM,17.1,10.0,74,30.08,10.0,Calm,Calm,-,N/A,,Clear,0,2013-02-16 07:53:00
3:53 AM,15.1,9.0,77,30.06,10.0,Calm,Calm,-,N/A,,Clear,0,2013-02-16 08:53:00
4:53 AM,14.0,10.0,84,30.06,10.0,West,3.5,-,N/A,,Mostly Cloudy,260,2013-02-16 09:53:00
5:53 AM,16.0,12.0,84,30.06,10.0,Calm,Calm,-,N/A,,Mostly Cloudy,0,2013-02-16 10:53:00
6:53 AM,17.1,12.0,81,30.04,10.0,Calm,Calm,-,N/A,,Mostly Cloudy,0,2013-02-16 11:53:00
7:53 AM,17.1,12.9,84,30.04,10.0,Calm,Calm,-,N/A,,Mostly Cloudy,0,2013-02-16 12:53:00
8:53 AM,18.0,12.9,81,30.04,10.0,Calm,Calm,-,N/A,,Mostly Cloudy,0,2013-02-16 13:53:00
9:53 AM,19.9,14.0,78,30.04,10.0,WSW,5.8,-,N/A,,Overcast,250,2013-02-16 14:53:00
10:53 AM,21.9,12.0,66,30.03,10.0,West,5.8,-,N/A,,Mostly Cloudy,280,2013-02-16 15:53:00
11:53 AM,23.0,10.9,60,30.02,10.0,Variable,3.5,-,N/A,,Mostly Cloudy,0,2013-02-16 16:53:00
12:33 PM,23.0,12.2,63,29.96,4.0,Calm,Calm,-,0.00,Snow,Light Snow,0,2013-02-16 17:33:00
12:36 PM,23.0,12.2,63,29.96,2.0,Calm,Calm,-,0.00,Snow,Light Snow,0,2013-02-16 17:36:00
12:48 PM,21.2,15.8,80,29.96,1.8,West,6.9,-,0.00,Snow,Light Snow,280,2013-02-16 17:48:00
12:53 PM,21.9,16.0,78,30.01,1.2,West,6.9,-,0.00,Snow,Light Snow,260,2013-02-16 17:53:00
1:00 PM,21.2,17.6,86,29.96,0.5,West,6.9,-,0.00,Snow,Snow,280,2013-02-16 18:00:00
1:15 PM,21.2,17.6,86,29.95,1.0,WNW,6.9,-,0.00,Snow,Light Snow,290,2013-02-16 18:15:00
1:19 PM,21.2,17.6,86,29.95,2.0,WNW,3.5,-,0.00,Snow,Light Snow,290,2013-02-16 18:19:00
1:26 PM,21.2,15.8,80,29.95,4.0,West,8.1,-,0.00,Snow,Light Snow,270,2013-02-16 18:26:00
1:35 PM,23.0,15.8,74,29.94,9.0,West,4.6,-,0.00,Snow,Light Snow,280,2013-02-16 18:35:00
1:53 PM,23.0,14.0,68,29.99,6.0,West,10.4,-,0.00,Snow,Light Snow,280,2013-02-16 18:53:00
1:57 PM,23.0,15.8,74,29.95,1.8,WNW,17.3,-,0.00,Snow,Light Snow,300,2013-02-16 18:57:00
2:04 PM,21.2,17.6,86,29.95,0.8,WNW,11.5,-,0.00,Snow,Light Snow,290,2013-02-16 19:04:00
2:20 PM,21.2,17.6,86,29.94,0.8,NW,6.9,-,0.00,Snow,Light Snow,320,2013-02-16 19:20:00
2:37 PM,21.2,15.8,80,29.94,2.0,NNW,4.6,-,0.00,Snow,Light Snow,340,2013-02-16 19:37:00
2:46 PM,21.2,15.8,80,29.94,3.0,NNW,3.5,-,0.00,Snow,Light Snow,330,2013-02-16 19:46:00
2:53 PM,21.9,17.1,82,29.98,5.0,Calm,Calm,-,0.00,Snow,Light Snow,0,2013-02-16 19:53:00
3:00 PM,23.0,15.8,74,29.94,2.0,NW,8.1,-,0.00,Snow,Light Snow,310,2013-02-16 20:00:00
3:07 PM,21.2,15.8,80,29.94,1.2,NW,9.2,-,0.00,Snow,Light Snow,310,2013-02-16 20:07:00
3:15 PM,21.2,15.8,80,29.93,4.0,West,9.2,-,0.00,Snow,Light Snow,280,2013-02-16 20:15:00
3:45 PM,21.2,14.0,74,29.94,1.8,NW,13.8,-,0.00,Snow,Light Snow,310,2013-02-16 20:45:00
3:53 PM,21.9,16.0,78,29.99,1.0,WNW,12.7,-,0.00,Snow,Light Snow,290,2013-02-16 20:53:00
4:01 PM,21.2,15.8,80,29.95,0.8,NW,12.7,-,0.00,Snow,Light Snow,320,2013-02-16 21:01:00
4:17 PM,21.2,15.8,80,29.95,1.5,NW,8.1,-,0.00,Snow,Light Snow,310,2013-02-16 21:17:00
4:38 PM,21.2,12.2,68,29.95,7.0,NW,9.2,-,0.00,,Overcast,310,2013-02-16 21:38:00
4:53 PM,21.9,10.9,63,30.01,10.0,NW,15.0,-,0.00,,Mostly Cloudy,310,2013-02-16 21:53:00
5:53 PM,19.9,9.0,62,30.02,10.0,WNW,9.2,-,0.00,,Mostly Cloudy,300,2013-02-16 22:53:00
6:53 PM,18.0,10.0,71,30.04,10.0,WNW,5.8,-,N/A,,Mostly Cloudy,290,2013-02-16 23:53:00
7:53 PM,16.0,10.0,77,30.05,10.0,WNW,6.9,-,N/A,,Scattered Clouds,290,2013-02-17 00:53:00
8:53 PM,14.0,9.0,80,30.06,10.0,WNW,5.8,-,N/A,,Scattered Clouds,290,2013-02-17 01:53:00
9:27 PM,15.8,10.4,79,30.01,2.0,WNW,5.8,-,0.00,Snow,Light Snow,300,2013-02-17 02:27:00
9:42 PM,15.8,12.2,86,30.01,6.0,NW,6.9,-,0.00,Snow,Light Snow,320,2013-02-17 02:42:00
9:53 PM,14.0,10.9,88,30.06,7.0,WNW,5.8,-,0.00,,Mostly Cloudy,300,2013-02-17 02:53:00
10:43 PM,12.2,10.4,92,30.01,8.0,WNW,6.9,-,0.00,,Overcast,290,2013-02-17 03:43:00
10:53 PM,12.9,10.0,88,30.06,10.0,WNW,5.8,-,0.00,,Overcast,300,2013-02-17 03:53:00
11:02 PM,12.2,10.4,92,30.01,10.0,NW,4.6,-,N/A,,Scattered Clouds,310,2013-02-17 04:02:00
11:30 PM,14.0,10.4,86,30.00,2.5,NW,4.6,-,0.00,Snow,Light Snow,320,2013-02-17 04:30:00
11:48 PM,15.8,12.2,86,30.00,1.8,WNW,4.6,-,0.00,Snow,Light Snow,300,2013-02-17 04:48:00
11:53 PM,15.1,12.0,88,30.05,1.2,WNW,4.6,-,0.00,Snow,Light Snow,300,2013-02-17 04:53:00